Terminal Aerodrome Forecast
Issued by NWS

Home | Current Version | Previous Version | Text Only | Print | Product List | Glossary On
Versions: 1 2 3 4 5 6 7 8 9 10 11 12 13 14 15 16 17
000
FTUS41 KPBZ 181121
TAFHLG
TAF
KHLG 181121Z 1812/1912 20006KT P6SM VCSH BKN008
     FM181400 21005KT P6SM VCSH SCT008 BKN015
      TEMPO 1814/1815 BKN008
     FM181600 24008KT P6SM SCT020
     FM182000 25010G19KT P6SM SCT040
     FM190300 25004KT 5SM BR SCT020=

USA.gov is the U.S. government's official web portal to all federal, state and local government web resources and services.